createdAt,value
2023-06-04T00:00:00.897Z,95147.00
2023-06-04T00:02:29.974Z,95153.34
2023-06-04T00:04:56.726Z,95146.22
2023-06-04T00:07:23.502Z,95152.31
2023-06-04T00:09:55.401Z,95152.31
2023-06-04T00:12:22.570Z,95150.69
2023-06-04T00:14:51.706Z,95147.00
2023-06-04T00:17:18.433Z,95149.09
2023-06-04T00:19:47.284Z,95147.00
2023-06-04T00:22:16.146Z,95156.81
2023-06-04T00:24:45.033Z,95140.09
2023-06-04T00:27:13.912Z,95140.09
2023-06-04T00:29:43.385Z,95146.22
2023-06-04T00:32:10.410Z,95132.16
2023-06-04T00:34:37.146Z,95133.19
2023-06-04T00:37:06.976Z,95134.81
2023-06-04T00:39:36.081Z,95134.81
2023-06-04T00:42:02.859Z,95130.53
2023-06-04T00:44:29.612Z,95134.00
2023-06-04T00:47:01.360Z,95133.19
2023-06-04T00:49:28.161Z,95133.19
2023-06-04T00:51:57.001Z,95126.69
2023-06-04T00:54:26.067Z,95127.88
2023-06-04T00:56:52.845Z,95127.88
2023-06-04T00:59:21.790Z,95134.81
2023-06-04T01:02:10.711Z,95136.88
2023-06-04T01:04:46.040Z,95141.34
2023-06-04T01:07:14.405Z,95140.53
2023-06-04T01:09:43.446Z,95142.16
2023-06-04T01:12:11.280Z,95142.16
2023-06-04T01:14:43.610Z,95134.22
2023-06-04T01:17:38.814Z,95135.22
2023-06-04T01:20:34.382Z,95129.94
2023-06-04T01:23:13.075Z,95134.41
2023-06-04T01:25:45.322Z,95132.56
2023-06-04T01:28:15.739Z,95128.31
2023-06-04T01:30:47.094Z,95134.22
2023-06-04T01:33:20.524Z,95148.47
2023-06-04T01:35:49.452Z,95140.53
2023-06-04T01:38:18.578Z,95148.69
2023-06-04T01:40:45.687Z,95151.13
2023-06-04T01:43:12.469Z,95153.78
2023-06-04T01:45:41.371Z,95156.41
2023-06-04T01:48:08.285Z,95153.97
2023-06-04T01:50:35.058Z,95152.59
2023-06-04T01:53:01.783Z,95157.47
2023-06-04T01:55:30.859Z,95155.59
2023-06-04T01:57:57.696Z,95153.97
2023-06-04T02:00:24.786Z,95162.53
2023-06-04T02:02:51.626Z,95163.78
2023-06-04T02:05:20.825Z,95160.09
2023-06-04T02:07:52.163Z,95160.91
2023-06-04T02:10:20.081Z,95158.50
2023-06-04T02:12:57.592Z,95160.91
2023-06-04T02:15:27.004Z,95163.78
2023-06-04T02:17:59.519Z,95162.19
2023-06-04T02:20:29.275Z,95162.97
2023-06-04T02:22:56.252Z,95167.47
2023-06-04T02:25:23.849Z,95168.50
2023-06-04T02:27:50.793Z,95172.78
2023-06-04T02:30:18.320Z,95183.38
2023-06-04T02:32:45.675Z,95183.38
2023-06-04T02:35:19.329Z,95183.38
2023-06-04T02:37:48.341Z,95191.06
2023-06-04T02:40:17.343Z,95186.03
2023-06-04T02:42:44.077Z,95188.66
2023-06-04T02:45:11.617Z,95196.63
2023-06-04T02:47:38.686Z,95200.31
2023-06-04T02:50:05.963Z,95197.66
2023-06-04T02:52:34.111Z,95202.94
2023-06-04T02:55:01.005Z,95209.03
2023-06-04T02:57:30.026Z,95202.94
2023-06-04T02:59:59.042Z,95202.13
2023-06-04T03:02:26.113Z,95202.13
2023-06-04T03:04:56.050Z,95206.63
2023-06-04T03:07:24.000Z,95203.75
2023-06-04T03:09:51.348Z,95208.25
2023-06-04T03:12:19.577Z,95208.25
2023-06-04T03:14:48.467Z,95211.31
2023-06-04T03:17:15.242Z,95206.63
2023-06-04T03:19:42.621Z,95207.63
2023-06-04T03:22:10.144Z,95206.00
2023-06-04T03:24:38.674Z,95213.75
2023-06-04T03:27:08.332Z,95211.94
2023-06-04T03:29:35.609Z,95213.75
2023-06-04T03:32:06.972Z,95214.78
2023-06-04T03:34:35.734Z,95220.88
2023-06-04T03:37:05.054Z,95224.56
2023-06-04T03:39:31.960Z,95224.56
2023-06-04T03:42:01.021Z,95229.06
2023-06-04T03:44:30.163Z,95235.97
2023-06-04T03:46:59.112Z,95231.47
2023-06-04T03:49:28.142Z,95239.44
2023-06-04T03:51:57.082Z,95242.31
2023-06-04T03:54:25.976Z,95240.47
2023-06-04T03:56:52.832Z,95241.50
2023-06-04T03:59:19.560Z,95231.94
2023-06-04T04:01:50.956Z,95241.50
2023-06-04T04:04:19.935Z,95236.19
2023-06-04T04:06:46.693Z,95239.28
2023-06-04T04:09:13.581Z,95238.84
2023-06-04T04:11:40.297Z,95245.75
2023-06-04T04:14:09.199Z,95240.91
2023-06-04T04:16:36.037Z,95241.50
2023-06-04T04:19:04.939Z,95245.75
2023-06-04T04:21:31.637Z,95254.75
2023-06-04T04:24:01.015Z,95253.13
2023-06-04T04:26:32.495Z,95260.03
2023-06-04T04:28:59.326Z,95254.75
2023-06-04T04:31:28.735Z,95257.38
2023-06-04T04:33:58.777Z,95260.88
2023-06-04T04:36:25.542Z,95256.34
2023-06-04T04:38:56.028Z,95254.75
2023-06-04T04:41:25.181Z,95259.25
2023-06-04T04:43:53.878Z,95247.81
2023-06-04T04:46:20.714Z,95260.03
2023-06-04T04:48:47.586Z,95247.81
2023-06-04T04:51:14.306Z,95248.66
2023-06-04T04:53:41.071Z,95251.28
2023-06-04T04:56:10.067Z,95253.13
2023-06-04T04:58:36.777Z,95253.13
2023-06-04T05:01:03.489Z,95256.59
2023-06-04T05:03:32.573Z,95258.41
2023-06-04T05:05:59.621Z,95258.41
2023-06-04T05:08:26.308Z,95253.13
2023-06-04T05:10:53.458Z,95260.03
2023-06-04T05:13:22.319Z,95261.06
2023-06-04T05:15:51.195Z,95258.41
2023-06-04T05:18:23.183Z,95262.69
2023-06-04T05:20:50.255Z,95271.66
2023-06-04T05:23:17.040Z,95271.47
2023-06-04T05:25:45.910Z,95274.31
2023-06-04T05:28:13.972Z,95267.19
2023-06-04T05:30:42.481Z,95269.00
2023-06-04T05:33:18.882Z,95269.00
2023-06-04T05:35:53.090Z,95274.09
2023-06-04T05:38:26.784Z,95275.94
2023-06-04T05:40:57.652Z,95276.97
2023-06-04T05:43:26.536Z,95275.94
2023-06-04T05:45:53.257Z,95283.88
2023-06-04T05:48:22.059Z,95280.44
2023-06-04T05:50:48.906Z,95283.88
2023-06-04T05:53:15.647Z,95284.13
2023-06-04T05:55:42.458Z,95291.03
2023-06-04T05:58:09.207Z,95288.16
2023-06-04T06:00:35.978Z,95290.22
2023-06-04T06:03:07.672Z,95298.16
2023-06-04T06:05:34.651Z,95297.13
2023-06-04T06:08:01.488Z,95300.00
2023-06-04T06:10:29.255Z,95305.31
2023-06-04T06:12:56.037Z,95306.09
2023-06-04T06:15:22.860Z,95305.06
2023-06-04T06:17:50.878Z,95301.25
2023-06-04T06:20:19.061Z,95312.22
2023-06-04T06:22:48.779Z,95306.09
2023-06-04T06:25:20.557Z,95306.69
2023-06-04T06:27:49.468Z,95300.81
2023-06-04T06:30:18.310Z,95302.44
2023-06-04T06:32:45.026Z,95300.59
2023-06-04T06:35:11.959Z,95301.41
2023-06-04T06:37:43.217Z,95309.34
2023-06-04T06:40:10.730Z,95305.06
2023-06-04T06:42:37.466Z,95309.34
2023-06-04T06:45:04.467Z,95310.16
2023-06-04T06:47:31.389Z,95309.34
2023-06-04T06:50:00.237Z,95319.94
2023-06-04T06:52:27.246Z,95317.28
2023-06-04T06:54:56.221Z,95315.47
2023-06-04T06:57:25.068Z,95310.38
2023-06-04T06:59:55.029Z,95314.66
2023-06-04T07:02:22.190Z,95321.56
2023-06-04T07:04:49.278Z,95321.56
2023-06-04T07:07:17.890Z,95315.47
2023-06-04T07:09:45.599Z,95318.13
2023-06-04T07:12:14.757Z,95326.84
2023-06-04T07:14:41.579Z,95330.53
2023-06-04T07:17:09.016Z,95333.81
2023-06-04T07:19:40.550Z,95336.66
2023-06-04T07:22:07.389Z,95337.47
2023-06-04T07:24:34.168Z,95340.94
2023-06-04T07:27:03.437Z,95339.09
2023-06-04T07:29:32.810Z,95342.75
2023-06-04T07:31:59.521Z,95343.59
2023-06-04T07:34:26.392Z,95347.06
2023-06-04T07:36:55.491Z,95349.72
2023-06-04T07:39:24.513Z,95345.19
2023-06-04T07:41:54.829Z,95345.19
2023-06-04T07:44:24.003Z,95348.06
2023-06-04T07:46:52.851Z,95349.72
2023-06-04T07:49:19.562Z,95351.31
2023-06-04T07:51:49.077Z,95356.63
2023-06-04T07:54:15.712Z,95363.53
2023-06-04T07:56:42.447Z,95357.41
2023-06-04T07:59:09.125Z,95363.53
2023-06-04T08:01:35.896Z,95367.22
2023-06-04T08:04:03.017Z,95359.28
2023-06-04T08:06:29.849Z,95362.72
2023-06-04T08:08:56.541Z,95364.34
2023-06-04T08:11:26.706Z,95365.16
2023-06-04T08:13:55.727Z,95363.53
2023-06-04T08:16:22.647Z,95360.91
2023-06-04T08:18:49.444Z,95366.78
2023-06-04T08:21:29.293Z,95364.13
2023-06-04T08:23:58.226Z,95359.63
2023-06-04T08:26:30.111Z,95359.63
2023-06-04T08:28:57.114Z,95365.75
2023-06-04T08:31:23.845Z,95365.75
2023-06-04T08:33:50.780Z,95366.78
2023-06-04T08:36:17.543Z,95367.56
2023-06-04T08:38:47.187Z,95363.09
2023-06-04T08:41:31.703Z,95379.81
2023-06-04T08:44:02.690Z,95385.94
2023-06-04T08:46:30.202Z,95385.94
2023-06-04T08:49:07.775Z,95379.00
2023-06-04T08:51:38.268Z,95389.59
2023-06-04T08:54:08.613Z,95388.59
2023-06-04T08:56:38.114Z,95394.91
2023-06-04T08:59:08.734Z,95393.91
2023-06-04T09:01:38.565Z,95391.25
2023-06-04T09:04:08.775Z,95395.53
2023-06-04T09:06:38.838Z,95396.34
2023-06-04T09:09:08.381Z,95403.47
2023-06-04T09:11:37.231Z,95402.44
2023-06-04T09:14:05.888Z,95410.38
2023-06-04T09:16:38.861Z,95402.69
2023-06-04T09:19:05.643Z,95408.75
2023-06-04T09:21:34.451Z,95404.28
2023-06-04T09:24:01.400Z,95408.56
2023-06-04T09:26:28.177Z,95399.00
2023-06-04T09:28:56.643Z,95399.34
2023-06-04T09:31:28.002Z,95392.44
2023-06-04T09:33:54.908Z,95397.72
2023-06-04T09:36:23.708Z,95395.66
2023-06-04T09:38:50.672Z,95403.41
2023-06-04T09:41:18.361Z,95399.97
2023-06-04T09:43:45.068Z,95405.84
2023-06-04T09:46:18.134Z,95398.94
2023-06-04T09:48:48.225Z,95408.28
2023-06-04T09:51:21.105Z,95394.22
2023-06-04T09:53:58.118Z,95402.19
2023-06-04T09:56:25.006Z,95400.56
2023-06-04T09:58:54.109Z,95396.28
2023-06-04T10:01:23.182Z,95395.84
2023-06-04T10:03:50.185Z,95395.59
2023-06-04T10:06:19.480Z,95388.28
2023-06-04T10:08:46.916Z,95396.44
2023-06-04T10:11:15.073Z,95389.91
2023-06-04T10:13:42.729Z,95380.09
2023-06-04T10:16:13.107Z,95373.38
2023-06-04T10:18:50.446Z,95377.44
2023-06-04T10:21:19.412Z,95376.84
2023-06-04T10:23:46.551Z,95382.16
2023-06-04T10:26:16.692Z,95380.09
2023-06-04T10:28:45.760Z,95380.09
2023-06-04T10:31:12.655Z,95388.03
2023-06-04T10:33:40.287Z,95383.78
2023-06-04T10:36:18.919Z,95383.78
2023-06-04T10:38:56.498Z,95382.75
2023-06-04T10:41:26.174Z,95381.72
2023-06-04T10:43:53.882Z,95383.78
2023-06-04T10:46:21.361Z,95382.75
2023-06-04T10:48:50.613Z,95371.09
2023-06-04T10:51:38.456Z,95378.84
2023-06-04T10:54:05.368Z,95377.00
2023-06-04T10:56:33.402Z,95377.59
2023-06-04T10:59:03.242Z,95375.16
2023-06-04T11:01:31.962Z,95374.34
2023-06-04T11:03:59.190Z,95379.63
2023-06-04T11:06:29.163Z,95384.16
2023-06-04T11:09:06.467Z,95377.59
2023-06-04T11:11:35.438Z,95372.31
2023-06-04T11:14:14.112Z,95373.94
2023-06-04T11:16:43.101Z,95372.91
2023-06-04T11:19:09.905Z,95374.72
2023-06-04T11:21:39.308Z,95371.47
2023-06-04T11:24:06.473Z,95376.34
2023-06-04T11:26:40.302Z,95370.25
2023-06-04T11:29:17.484Z,95375.53
2023-06-04T11:31:45.617Z,95370.25
2023-06-04T11:34:15.119Z,95361.72
2023-06-04T11:36:43.964Z,95361.72
2023-06-04T11:39:11.546Z,95371.28
2023-06-04T11:41:41.228Z,95372.31
2023-06-04T11:44:10.037Z,95379.22
2023-06-04T11:46:41.125Z,95375.53
2023-06-04T11:49:16.782Z,95377.59
2023-06-04T11:51:50.192Z,95382.91
2023-06-04T11:54:17.550Z,95375.97
2023-06-04T11:56:47.511Z,95381.25
2023-06-04T11:59:14.787Z,95372.72
2023-06-04T12:01:42.287Z,95378.03
2023-06-04T12:04:16.320Z,95377.22
2023-06-04T12:07:20.355Z,95380.91
2023-06-04T12:09:49.514Z,95383.56
2023-06-04T12:12:16.537Z,95385.38
2023-06-04T12:14:46.191Z,95380.09
2023-06-04T12:17:13.176Z,95383.78
2023-06-04T12:19:49.995Z,95390.69
2023-06-04T12:22:16.754Z,95383.78
2023-06-04T12:24:55.703Z,95388.28
2023-06-04T12:27:29.405Z,95394.38
2023-06-04T12:30:02.727Z,95383.78
2023-06-04T12:32:29.812Z,95383.78
2023-06-04T12:34:56.751Z,95389.06
2023-06-04T12:37:23.795Z,95392.31
2023-06-04T12:39:54.874Z,95380.69
2023-06-04T12:42:21.953Z,95378.25
2023-06-04T12:44:51.123Z,95379.06
2023-06-04T12:47:20.107Z,95377.44
2023-06-04T12:49:47.018Z,95379.88
2023-06-04T12:52:15.403Z,95383.31
2023-06-04T12:54:43.350Z,95378.03
2023-06-04T12:57:12.413Z,95387.00
2023-06-04T12:59:39.279Z,95378.47
2023-06-04T13:02:06.355Z,95385.38
2023-06-04T13:04:33.133Z,95378.47
2023-06-04T13:07:02.842Z,95382.97
2023-06-04T13:09:29.905Z,95384.81
2023-06-04T13:11:57.192Z,95378.47
2023-06-04T13:14:23.936Z,95383.78
2023-06-04T13:16:52.781Z,95376.84
2023-06-04T13:19:21.752Z,95378.47
2023-06-04T13:21:48.826Z,95373.16
2023-06-04T13:24:16.801Z,95377.69
2023-06-04T13:26:45.935Z,95376.84
2023-06-04T13:29:13.424Z,95378.47
2023-06-04T13:31:41.006Z,95374.00
2023-06-04T13:34:26.480Z,95370.38
2023-06-04T13:36:57.386Z,95372.00
2023-06-04T13:39:24.142Z,95374.84
2023-06-04T13:41:50.847Z,95372.44
2023-06-04T13:44:18.287Z,95366.09
2023-06-04T13:46:47.275Z,95370.38
2023-06-04T13:49:14.015Z,95365.06
2023-06-04T13:51:40.736Z,95364.47
2023-06-04T13:54:07.603Z,95361.84
2023-06-04T13:56:34.989Z,95360.22
2023-06-04T13:59:01.793Z,95358.56
2023-06-04T14:01:28.501Z,95365.50
2023-06-04T14:03:55.669Z,95368.75
2023-06-04T14:06:22.817Z,95377.72
2023-06-04T14:08:51.675Z,95377.72
2023-06-04T14:11:19.155Z,95376.69
2023-06-04T14:13:48.055Z,95377.72
2023-06-04T14:16:15.964Z,95371.81
2023-06-04T14:18:42.814Z,95376.91
2023-06-04T14:21:09.936Z,95383.03
2023-06-04T14:23:36.971Z,95381.41
2023-06-04T14:26:05.920Z,95385.06
2023-06-04T14:28:34.816Z,95383.44
2023-06-04T14:31:01.478Z,95379.75
2023-06-04T14:33:28.333Z,95383.44
2023-06-04T14:35:55.051Z,95384.47
2023-06-04T14:38:22.473Z,95387.13
2023-06-04T14:40:49.151Z,95383.44
2023-06-04T14:43:16.035Z,95378.97
2023-06-04T14:45:49.982Z,95376.31
2023-06-04T14:48:17.053Z,95378.16
2023-06-04T14:50:48.019Z,95379.19
2023-06-04T14:53:14.886Z,95384.28
2023-06-04T14:55:41.739Z,95379.19
2023-06-04T14:58:12.459Z,95371.22
2023-06-04T15:00:39.378Z,95376.53
2023-06-04T15:03:06.449Z,95375.50
2023-06-04T15:05:33.487Z,95378.16
2023-06-04T15:08:00.429Z,95369.59
2023-06-04T15:10:27.810Z,95368.00
2023-06-04T15:12:57.291Z,95368.00
2023-06-04T15:15:24.257Z,95370.63
2023-06-04T15:17:51.131Z,95373.28
2023-06-04T15:20:20.148Z,95374.13
2023-06-04T15:22:49.062Z,95376.97
2023-06-04T15:25:15.899Z,95376.97
2023-06-04T15:27:42.703Z,95374.53
2023-06-04T15:30:09.709Z,95370.06
2023-06-04T15:32:36.944Z,95368.00
2023-06-04T15:35:07.202Z,95361.06
2023-06-04T15:37:34.239Z,95362.09
2023-06-04T15:40:02.357Z,95359.44
2023-06-04T15:42:29.107Z,95364.75
2023-06-04T15:44:55.822Z,95353.31
2023-06-04T15:47:24.880Z,95356.19
2023-06-04T15:49:51.620Z,95355.16
2023-06-04T15:52:20.523Z,95359.88
2023-06-04T15:54:47.577Z,95361.47
2023-06-04T15:57:14.639Z,95362.28
2023-06-04T15:59:42.257Z,95360.66
2023-06-04T16:02:11.600Z,95366.78
2023-06-04T16:04:38.613Z,95364.94
2023-06-04T16:07:08.078Z,95351.31
2023-06-04T16:09:39.998Z,95367.56
2023-06-04T16:12:07.443Z,95368.41
2023-06-04T16:14:34.236Z,95369.44
2023-06-04T16:17:04.595Z,95372.09
2023-06-04T16:19:34.357Z,95373.09
2023-06-04T16:22:01.378Z,95378.63
2023-06-04T16:24:28.145Z,95381.06
2023-06-04T16:26:55.208Z,95371.50
2023-06-04T16:29:22.105Z,95380.22
2023-06-04T16:31:48.941Z,95378.63
2023-06-04T16:34:15.967Z,95381.06
2023-06-04T16:36:43.423Z,95383.13
2023-06-04T16:39:12.326Z,95386.56
2023-06-04T16:41:41.189Z,95385.78
2023-06-04T16:44:08.142Z,95384.75
2023-06-04T16:46:35.452Z,95385.78
2023-06-04T16:49:04.381Z,95399.03
2023-06-04T16:51:33.293Z,95401.66
2023-06-04T16:54:00.001Z,95400.63
2023-06-04T16:56:27.167Z,95392.09
2023-06-04T16:58:54.056Z,95400.63
2023-06-04T17:01:21.126Z,95391.28
2023-06-04T17:03:48.044Z,95393.09
2023-06-04T17:06:15.411Z,95394.50
2023-06-04T17:08:44.221Z,95391.28
2023-06-04T17:11:11.761Z,95392.09
2023-06-04T17:13:40.583Z,95385.16
2023-06-04T17:16:07.877Z,95386.19
2023-06-04T17:18:36.943Z,95390.88
2023-06-04T17:21:03.762Z,95387.22
2023-06-04T17:23:31.863Z,95390.88
2023-06-04T17:26:00.616Z,95396.19
2023-06-04T17:28:29.435Z,95397.00
2023-06-04T17:30:56.425Z,95403.34
2023-06-04T17:33:23.130Z,95399.88
2023-06-04T17:35:50.067Z,95407.81
2023-06-04T17:38:19.400Z,95413.34
2023-06-04T17:40:46.335Z,95406.19
2023-06-04T17:43:13.068Z,95403.53
2023-06-04T17:45:42.908Z,95407.22
2023-06-04T17:48:11.942Z,95412.31
2023-06-04T17:50:40.728Z,95410.47
2023-06-04T17:53:07.449Z,95412.09
2023-06-04T17:55:34.597Z,95415.75
2023-06-04T17:58:03.622Z,95412.09
2023-06-04T18:00:30.679Z,95409.44
2023-06-04T18:02:59.816Z,95420.25
2023-06-04T18:05:26.711Z,95414.16
2023-06-04T18:07:53.440Z,95412.53
2023-06-04T18:10:22.018Z,95408.06
2023-06-04T18:12:48.897Z,95406.41
2023-06-04T18:15:16.185Z,95417.81
2023-06-04T18:17:43.095Z,95410.91
2023-06-04T18:20:13.574Z,95417.81
2023-06-04T18:22:40.425Z,95417.22
2023-06-04T18:25:09.875Z,95412.97
2023-06-04T18:27:39.190Z,95406.03
2023-06-04T18:30:06.452Z,95412.13
2023-06-04T18:32:33.315Z,95413.16
2023-06-04T18:35:00.101Z,95415.81
2023-06-04T18:37:29.238Z,95415.03
2023-06-04T18:39:55.963Z,95429.28
2023-06-04T18:42:30.841Z,95431.94
2023-06-04T18:45:00.912Z,95438.84
2023-06-04T18:47:27.846Z,95433.75
2023-06-04T18:49:56.776Z,95438.25
2023-06-04T18:52:23.762Z,95433.97
2023-06-04T18:54:50.468Z,95436.63
2023-06-04T18:57:17.200Z,95429.94
2023-06-04T18:59:48.581Z,95424.44
2023-06-04T19:02:15.372Z,95433.38
2023-06-04T19:04:42.088Z,95439.25
2023-06-04T19:07:09.031Z,95431.75
2023-06-04T19:09:36.214Z,95433.81
2023-06-04T19:12:03.010Z,95431.75
2023-06-04T19:14:29.656Z,95434.41
2023-06-04T19:16:56.432Z,95431.75
2023-06-04T19:19:23.159Z,95431.75
2023-06-04T19:21:53.060Z,95442.34
2023-06-04T19:24:22.392Z,95441.16
2023-06-04T19:26:51.829Z,95445.22
2023-06-04T19:29:19.574Z,95441.16
2023-06-04T19:31:49.923Z,95451.56
2023-06-04T19:34:18.990Z,95446.47
2023-06-04T19:36:45.837Z,95441.59
2023-06-04T19:39:12.604Z,95444.41
2023-06-04T19:41:39.344Z,95438.50
2023-06-04T19:44:06.292Z,95443.81
2023-06-04T19:46:33.040Z,95433.41
2023-06-04T19:49:00.130Z,95446.47
2023-06-04T19:51:30.154Z,95445.63
2023-06-04T19:53:57.047Z,95445.03
2023-06-04T19:56:23.903Z,95430.19
2023-06-04T19:58:52.792Z,95424.09
2023-06-04T20:01:19.817Z,95422.47
2023-06-04T20:03:46.678Z,95422.47
2023-06-04T20:06:16.607Z,95417.16
2023-06-04T20:08:44.370Z,95415.53
2023-06-04T20:11:16.939Z,95419.19
2023-06-04T20:13:46.244Z,95415.94
2023-06-04T20:16:15.512Z,95420.81
2023-06-04T20:18:46.996Z,95428.16
2023-06-04T20:21:13.736Z,95425.53
2023-06-04T20:23:40.604Z,95430.03
2023-06-04T20:26:08.966Z,95424.72
2023-06-04T20:28:36.103Z,95422.28
2023-06-04T20:31:05.040Z,95427.56
2023-06-04T20:33:36.008Z,95430.22
2023-06-04T20:36:05.015Z,95431.44
2023-06-04T20:38:34.662Z,95420.69
2023-06-04T20:41:01.337Z,95426.59
2023-06-04T20:43:28.090Z,95433.75
2023-06-04T20:45:57.249Z,95427.84
2023-06-04T20:48:26.217Z,95427.84
2023-06-04T20:50:55.016Z,95429.88
2023-06-04T20:53:24.009Z,95431.53
2023-06-04T20:55:50.878Z,95436.81
2023-06-04T20:58:20.573Z,95437.81
2023-06-04T21:00:49.501Z,95444.13
2023-06-04T21:03:16.254Z,95436.44
2023-06-04T21:05:45.170Z,95446.00
2023-06-04T21:08:11.849Z,95438.84
2023-06-04T21:10:41.206Z,95443.34
2023-06-04T21:13:07.969Z,95439.50
2023-06-04T21:15:36.766Z,95445.44
2023-06-04T21:18:06.650Z,95455.16
2023-06-04T21:20:33.585Z,95450.28
2023-06-04T21:23:02.508Z,95453.97
2023-06-04T21:25:31.458Z,95459.69
2023-06-04T21:27:58.150Z,95456.41
2023-06-04T21:30:24.926Z,95453.19
2023-06-04T21:32:51.730Z,95458.47
2023-06-04T21:35:23.812Z,95456.84
2023-06-04T21:37:50.578Z,95449.94
2023-06-04T21:40:17.274Z,95449.50
2023-06-04T21:42:43.950Z,95449.09
2023-06-04T21:45:11.568Z,95449.50
2023-06-04T21:47:38.947Z,95462.16
2023-06-04T21:50:06.071Z,95455.66
2023-06-04T21:52:32.734Z,95454.03
2023-06-04T21:54:59.953Z,95459.31
2023-06-04T21:57:26.652Z,95465.22
2023-06-04T21:59:55.479Z,95464.78
2023-06-04T22:02:22.246Z,95467.25
2023-06-04T22:04:49.738Z,95465.81
2023-06-04T22:07:18.740Z,95466.25
2023-06-04T22:09:45.606Z,95459.31
2023-06-04T22:12:12.243Z,95464.63
2023-06-04T22:14:41.059Z,95467.03
2023-06-04T22:17:09.959Z,95456.06
2023-06-04T22:19:37.220Z,95464.19
2023-06-04T22:22:06.586Z,95462.56
2023-06-04T22:24:33.302Z,95465.81
2023-06-04T22:27:00.037Z,95463.59
2023-06-04T22:29:29.411Z,95461.53
2023-06-04T22:32:00.860Z,95474.00
2023-06-04T22:34:27.552Z,95475.59
2023-06-04T22:36:56.551Z,95479.06
2023-06-04T22:39:23.226Z,95486.41
2023-06-04T22:41:50.024Z,95482.13
2023-06-04T22:44:16.694Z,95480.50
2023-06-04T22:46:43.542Z,95487.41
2023-06-04T22:49:10.259Z,95469.91
2023-06-04T22:51:39.220Z,95475.22
2023-06-04T22:54:05.922Z,95476.22
2023-06-04T22:56:34.816Z,95483.16
2023-06-04T22:59:01.601Z,95485.19
2023-06-04T23:01:28.473Z,95478.28
2023-06-04T23:03:55.253Z,95473.00
2023-06-04T23:06:24.104Z,95474.81
2023-06-04T23:08:52.924Z,95479.31
2023-06-04T23:11:20.658Z,95471.38
2023-06-04T23:13:50.190Z,95469.75
2023-06-04T23:16:16.972Z,95464.44
2023-06-04T23:18:45.838Z,95456.31
2023-06-04T23:21:14.758Z,95461.19
2023-06-04T23:23:41.504Z,95470.75
2023-06-04T23:26:10.490Z,95470.97
2023-06-04T23:28:37.188Z,95477.06
2023-06-04T23:31:03.923Z,95470.75
2023-06-04T23:33:30.546Z,95474.41
2023-06-04T23:35:57.312Z,95472.78
2023-06-04T23:38:26.126Z,95472.78
2023-06-04T23:40:52.976Z,95463.81
2023-06-04T23:43:21.801Z,95462.19
2023-06-04T23:45:48.690Z,95468.31
2023-06-04T23:48:17.587Z,95458.53
2023-06-04T23:50:46.580Z,95464.25
2023-06-04T23:53:13.264Z,95465.88
2023-06-04T23:55:40.027Z,95465.06
2023-06-04T23:58:25.764Z,95456.31
